Latest Coastal Weather Observations for Aireys Inlet

IDV60701

Issued at 3:31 pm EST Monday 27 April 2015 (issued every 10 minutes, with the page automatically refreshed every 10 minutes)

About coastal observations | Map of coastal stations | Coastal observations for VIC | Marine services | Other Formats
Station Details ID: 090180 Name: AIREYS INLET Lat: -38.46 Lon: 144.09 Height: 95.0 m
Data from the previous 72 hours. | See also: Recent months at Aireys Inlet
Date/Time
EST
Temp

°C
Wind Pressure Rain
since 9am
mm
Weather Cloud Vis
km
Sea
Height
m
Swell
Dir
 
Speed
knots
Gust
knots
hPa Trend Height
m
Period
s
Dir
27/03:30pm 13.5 SW 16 23 - - 0.0 - - - - - - -
27/03:00pm 13.3 SW 10 15 - - 0.0 - - - - - - -
27/02:30pm 13.1 WSW 14 20 - - 0.0 - - - - - - -
27/02:00pm 13.3 SW 12 18 - - 0.0 - - - - - - -
27/01:30pm 13.7 SW 15 22 - - 0.0 - - - - - - -
27/01:00pm 13.6 SW 14 20 - - 0.0 - - - - - - -
27/12:30pm 14.5 SW 12 18 - - 0.0 - - - - - - -
27/12:00pm 13.3 WSW 11 17 - - 0.0 - - - - - - -
27/11:30am 13.8 WSW 10 16 - - 0.0 - - - - - - -
27/11:00am 12.8 SW 8 11 - - 0.0 - - - - - - -
27/10:30am 13.4 SW 10 15 - - 0.0 - - - - - - -
27/10:00am 12.5 WSW 11 14 - - 0.0 - - - - - - -
27/09:30am 12.8 WSW 10 15 - - 0.0 - - - - - - -
27/09:00am 11.5 W 6 8 - - 0.2 - - - - - - -
27/08:30am 11.4 WSW 8 13 - - - - - - - - - -
27/08:00am 10.3 WNW 7 11 - - - - - - - - - -
27/07:30am 9.7 WNW 7 10 - - - - - - - - - -
27/07:00am 10.9 WSW 13 19 - - - - - - - - - -
27/06:30am 10.5 W 9 13 - - - - - - - - - -
27/06:00am 10.0 WNW 6 9 - - - - - - - - - -
27/05:30am 10.7 WSW 10 15 - - - - - - - - - -
27/05:00am 10.4 WSW 9 15 - - - - - - - - - -
27/04:30am 9.8 WNW 6 8 - - - - - - - - - -
27/04:00am 9.8 W 6 8 - - - - - - - - - -
27/03:30am 10.1 WSW 6 9 - - - - - - - - - -
27/03:00am 10.2 W 6 8 - - 0.0 - - - - - - -
27/02:30am 10.3 W 9 12 - - - - - - - - - -
27/02:00am 10.0 W 8 13 - - - - - - - - - -
27/01:30am 10.1 WNW 7 9 - - - - - - - - - -
27/01:00am 10.0 W 8 12 - - - - - - - - - -
27/12:30am 9.5 WNW 8 10 - - - - - - - - - -
27/12:00am 10.8 WSW 7 11 - - - - - - - - - -
 
Date/Time
EST
Temp

°C
Wind Pressure Rain
since 9am
mm
Weather Cloud Vis
km
Sea
Height
m
Swell
Dir
 
Speed
knots
Gust
knots
hPa Trend Height
m
Period
s
Dir
26/11:30pm 10.1 WSW 7 10 - - - - - - - - - -
26/11:00pm 10.1 W 9 10 - - - - - - - - - -
26/10:30pm 10.3 W 8 11 - - - - - - - - - -
26/10:00pm 10.4 W 9 11 - - - - - - - - - -
26/09:30pm 10.3 W 8 10 - - - - - - - - - -
26/09:00pm 10.3 W 9 12 - - 0.0 - - - - - - -
26/08:30pm 10.0 W 7 10 - - - - - - - - - -
26/08:00pm 10.4 W 7 10 - - - - - - - - - -
26/07:30pm 10.6 W 7 11 - - - - - - - - - -
26/07:00pm 10.8 W 7 11 - - - - - - - - - -
26/06:30pm 11.1 W 8 11 - - - - - - - - - -
26/06:00pm 11.7 WSW 11 19 - - - - - - - - - -
26/05:30pm 12.0 WSW 10 14 - - - - - - - - - -
26/05:00pm 12.6 WSW 12 18 - - - - - - - - - -
26/04:30pm 14.1 WSW 10 16 - - - - - - - - - -
26/04:00pm 13.5 SW 12 19 - - - - - - - - - -
26/03:30pm 12.9 WSW 14 19 - - - - - - - - - -
26/01:00pm 13.0 SW 14 24 - - - - - - - - - -
26/11:00am 13.5 WSW 12 19 - - 0.2 - - - - - - -
26/10:30am 12.0 WSW 12 18 - - 0.2 - - - - - - -
26/10:00am 11.0 W 9 14 - - 0.2 - - - - - - -
26/09:30am 10.6 WSW 13 18 - - 0.2 - - - - - - -
26/09:19am 10.7 WSW 15 25 - - 0.0 - - - - - - -
26/09:00am 11.1 WSW 12 19 - - 19.6 - - - - - - -
26/08:30am 10.2 WSW 10 14 - - 19.6 - - - - - - -
26/08:00am 10.0 WSW 11 16 - - 19.6 - - - - - - -
26/07:30am 10.2 SW 14 21 - - 19.6 - - - - - - -
26/07:00am 10.4 WSW 14 22 - - 19.2 - - - - - - -
26/06:30am 9.7 WSW 11 16 - - 19.2 - - - - - - -
26/06:00am 9.9 WSW 13 21 - - 19.2 Recent precip. - - - - - -
26/05:30am 9.6 WSW 11 15 - - 19.2 - - - - - - -
26/05:00am 10.1 SSW 14 21 - - 19.0 - - - - - - -
26/04:30am 9.8 WSW 12 19 - - 18.8 - - - - - - -
26/04:00am 9.8 WSW 11 17 - - 18.8 - - - - - - -
26/03:30am 10.6 WSW 12 18 - - 18.8 - - - - - - -
26/03:04am 11.0 SW 15 26 - - 18.8 - - - - - - -
26/03:00am 10.9 WSW 10 26 - - 18.8 - - - - - - -
26/02:30am 10.6 SSW 15 24 - - 18.8 - - - - - - -
26/02:27am 10.6 SSW 15 24 - - 18.8 - - - - - - -
26/02:00am 10.3 WSW 8 12 - - 18.8 - - - - - - -
26/01:37am 10.8 SW 15 25 - - 18.4 - - - - - - -
26/01:30am 11.2 SW 19 26 - - 18.4 - - - - - - -
26/01:00am 11.7 SW 16 25 - - 18.4 - - - - - - -
26/12:44am 11.9 SW 16 27 - - 18.4 - - - - - - -
26/12:30am 12.2 SSW 14 23 - - 18.4 - - - - - - -
26/12:00am 12.5 SSW 15 25 - - 18.4 - - - - - - -
 
Date/Time
EST
Temp

°C
Wind Pressure Rain
since 9am
mm
Weather Cloud Vis
km
Sea
Height
m
Swell
Dir
 
Speed
knots
Gust
knots
hPa Trend Height
m
Period
s
Dir
25/11:30pm 12.3 SSW 15 22 - - 18.4 - - - - - - -
25/11:00pm 12.5 SW 16 24 - - 18.4 - - - - - - -
25/10:30pm 12.4 SSW 16 24 - - 18.4 - - - - - - -
25/10:00pm 12.2 SSW 16 23 - - 18.4 - - - - - - -
25/09:49pm 12.3 SSW 16 27 - - 18.4 - - - - - - -
25/09:30pm 12.2 SSW 17 26 - - 18.4 - - - - - - -
25/09:12pm 12.3 SSW 17 28 - - 18.4 - - - - - - -
25/09:00pm 12.2 SSW 16 25 - - 18.4 - - - - - - -
25/08:30pm 12.0 SSW 13 23 - - 18.4 - - - - - - -
25/08:00pm 11.7 S 15 22 - - 18.4 - - - - - - -
25/07:30pm 11.5 SSW 17 25 - - 18.2 - - - - - - -
25/07:00pm 12.3 S 18 29 - - 17.6 - - - - - - -
25/06:37pm 12.5 SSW 21 31 - - 17.6 - - - - - - -
25/06:30pm 12.6 SSW 21 29 - - 17.6 - - - - - - -
25/06:20pm 12.6 SSW 20 33 - - 17.6 - - - - - - -
25/06:00pm 12.9 SSW 21 30 - - 17.6 - - - - - - -
25/05:30pm 13.1 SSW 19 29 - - 17.6 - - - - - - -
25/05:00pm 13.2 SSW 21 31 - - 17.6 - - - - - - -
25/04:35pm 13.0 S 17 27 - - 17.6 - - - - - - -
25/04:30pm 13.1 S 15 23 - - 17.6 - - - - - - -
25/04:00pm 12.8 S 16 23 - - 17.6 - - - - - - -
25/03:30pm 12.8 SSW 14 21 - - 17.6 - - - - - - -
25/03:00pm 13.8 S 14 23 - - 17.0 - - - - - - -
25/02:30pm 13.8 S 12 17 - - 17.0 - - - - - - -
25/02:00pm 13.4 S 12 18 - - 17.0 - - - - - - -
25/01:30pm 12.9 S 12 16 - - 17.0 - - - - - - -
25/01:00pm 12.8 SW 6 9 - - 17.0 - - - - - - -
25/12:30pm 12.6 SW 5 8 - - 15.4 - - - - - - -
25/12:00pm 12.3 SW 8 12 - - 14.6 Rain - - - - - -
25/11:30am 12.4 SW 7 10 - - 13.0 - - - - - - -
25/11:00am 12.3 SW 10 13 - - 12.8 - - - - - - -
25/10:30am 12.1 WSW 8 9 - - 11.6 - - - - - - -
25/10:00am 12.2 SW 8 10 - - 8.4 - - - - - - -
25/09:30am 12.3 SW 9 13 - - 4.8 - - - - - - -
25/09:00am 12.4 SW 10 15 - - 4.0 Rain - - - - - -
25/08:30am 12.5 SSW 9 13 - - 1.0 - - - - - - -
25/08:00am 12.1 SW 5 7 - - 0.2 - - - - - - -
25/07:30am 11.5 WNW 5 8 - - 0.2 - - - - - - -
25/07:00am 11.4 NW 5 7 - - 0.2 - - - - - - -
25/06:30am 11.3 NW 6 8 - - 0.2 - - - - - - -
25/06:00am 11.0 NW 9 13 - - 0.2 - - - - - - -
25/05:30am 11.0 NW 8 11 - - 0.2 - - - - - - -
25/05:00am 10.9 NW 7 10 - - 0.2 - - - - - - -
25/04:30am 11.1 NW 11 14 - - 0.2 - - - - - - -
25/04:00am 10.9 NW 8 11 - - 0.2 - - - - - - -
25/03:30am 11.0 NW 5 6 - - 0.2 - - - - - - -
25/03:00am 11.2 WNW 8 12 - - 0.2 - - - - - - -
25/02:30am 11.6 NW 8 11 - - 0.2 - - - - - - -
25/02:00am 12.0 NW 8 11 - - 0.2 - - - - - - -
25/01:30am 12.1 NW 6 8 - - 0.2 - - - - - - -
25/01:00am 12.1 NW 9 12 - - 0.2 - - - - - - -
25/12:30am 12.1 NW 10 13 - - 0.2 - - - - - - -
25/12:00am 12.1 NW 8 12 - - 0.2 - - - - - - -
 
Date/Time
EST
Temp

°C
Wind Pressure Rain
since 9am
mm
Weather Cloud Vis
km
Sea
Height
m
Swell
Dir
 
Speed
knots
Gust
knots
hPa Trend Height
m
Period
s
Dir
24/11:30pm 12.2 NW 4 7 - - 0.2 - - - - - - -
24/11:00pm 12.3 NW 7 9 - - 0.2 - - - - - - -
24/10:30pm 12.3 NW 7 10 - - 0.2 - - - - - - -
24/10:00pm 12.7 NW 5 7 - - 0.2 - - - - - - -
24/09:30pm 13.0 W 1 3 - - 0.2 - - - - - - -
24/09:00pm 13.1 WNW 6 11 - - 0.2 Recent precip. - - - - - -
24/08:30pm 13.5 WNW 10 16 - - 0.2 - - - - - - -
24/08:00pm 13.9 NNW 2 3 - - 0.0 - - - - - - -
24/07:30pm 14.7 SSE 1 3 - - 0.0 - - - - - - -
24/07:00pm 14.5 SSE 1 3 - - 0.0 - - - - - - -
24/06:30pm 14.4 S 2 3 - - 0.0 - - - - - - -
24/06:00pm 14.6 SSW 1 2 - - 0.0 - - - - - - -
24/05:30pm 15.0 S 2 3 - - 0.0 - - - - - - -
24/05:00pm 15.6 S 2 3 - - 0.0 - - - - - - -
24/04:30pm 15.6 SSW 3 4 - - 0.0 - - - - - - -
24/04:00pm 15.7 SSW 4 6 - - 0.0 - - - - - - -

Other Formats:

Comma delimited format used in spreadsheet applications
http://www.bom.gov.au/fwo/IDV60701/IDV60701.94846.axf

JavaScript Object Notation format (JSON) in row-major order
http://www.bom.gov.au/fwo/IDV60701/IDV60701.94846.json